sensor_id;sensor_type;location;lat;lon;timestamp;P1;durP1;ratioP1;P2;durP2;ratioP2
51810;SDS011;52468;40.116;18.296;2023-01-13T00:01:24;26.23;;;17.70;;
51810;SDS011;52468;40.116;18.296;2023-01-13T00:03:53;28.47;;;18.40;;
51810;SDS011;52468;40.116;18.296;2023-01-13T00:06:22;28.27;;;17.80;;
51810;SDS011;52468;40.116;18.296;2023-01-13T00:08:54;30.13;;;17.80;;
51810;SDS011;52468;40.116;18.296;2023-01-13T00:11:22;39.57;;;19.53;;
51810;SDS011;52468;40.116;18.296;2023-01-13T00:13:50;30.00;;;18.70;;
51810;SDS011;52468;40.116;18.296;2023-01-13T00:16:18;39.33;;;19.83;;
51810;SDS011;52468;40.116;18.296;2023-01-13T00:18:47;27.43;;;18.93;;
51810;SDS011;52468;40.116;18.296;2023-01-13T00:21:20;33.77;;;19.13;;
51810;SDS011;52468;40.116;18.296;2023-01-13T00:23:51;32.63;;;19.23;;
51810;SDS011;52468;40.116;18.296;2023-01-13T00:26:23;33.90;;;20.30;;
51810;SDS011;52468;40.116;18.296;2023-01-13T00:28:57;27.90;;;16.70;;
51810;SDS011;52468;40.116;18.296;2023-01-13T00:31:26;32.17;;;17.93;;
51810;SDS011;52468;40.116;18.296;2023-01-13T00:33:55;27.83;;;17.73;;
51810;SDS011;52468;40.116;18.296;2023-01-13T00:36:24;24.57;;;17.40;;
51810;SDS011;52468;40.116;18.296;2023-01-13T00:38:53;30.40;;;18.43;;
51810;SDS011;52468;40.116;18.296;2023-01-13T00:41:21;35.43;;;18.47;;
51810;SDS011;52468;40.116;18.296;2023-01-13T00:43:50;24.23;;;15.80;;
51810;SDS011;52468;40.116;18.296;2023-01-13T00:46:19;28.07;;;18.53;;
51810;SDS011;52468;40.116;18.296;2023-01-13T00:48:48;28.73;;;16.07;;
51810;SDS011;52468;40.116;18.296;2023-01-13T00:51:18;25.27;;;15.83;;
51810;SDS011;52468;40.116;18.296;2023-01-13T00:53:49;26.20;;;15.03;;
51810;SDS011;52468;40.116;18.296;2023-01-13T00:56:19;27.83;;;16.13;;
51810;SDS011;52468;40.116;18.296;2023-01-13T00:59:04;26.17;;;16.53;;
51810;SDS011;52468;40.116;18.296;2023-01-13T01:01:33;25.97;;;15.60;;
51810;SDS011;52468;40.116;18.296;2023-01-13T01:04:01;24.53;;;15.27;;
51810;SDS011;52468;40.116;18.296;2023-01-13T01:06:29;21.80;;;14.23;;
51810;SDS011;52468;40.116;18.296;2023-01-13T01:08:56;21.50;;;13.87;;
51810;SDS011;52468;40.116;18.296;2023-01-13T01:11:26;23.33;;;14.57;;
51810;SDS011;52468;40.116;18.296;2023-01-13T01:13:56;20.07;;;13.70;;
51810;SDS011;52468;40.116;18.296;2023-01-13T01:16:26;22.27;;;11.73;;
51810;SDS011;52468;40.116;18.296;2023-01-13T01:18:55;25.27;;;12.90;;
51810;SDS011;52468;40.116;18.296;2023-01-13T01:21:24;18.07;;;11.93;;
51810;SDS011;52468;40.116;18.296;2023-01-13T01:23:53;20.53;;;11.37;;
51810;SDS011;52468;40.116;18.296;2023-01-13T01:26:23;16.83;;;10.03;;
51810;SDS011;52468;40.116;18.296;2023-01-13T01:28:52;17.90;;;10.30;;
51810;SDS011;52468;40.116;18.296;2023-01-13T01:31:22;16.43;;;11.03;;
51810;SDS011;52468;40.116;18.296;2023-01-13T01:33:52;17.23;;;10.83;;
51810;SDS011;52468;40.116;18.296;2023-01-13T01:36:21;22.70;;;11.13;;
51810;SDS011;52468;40.116;18.296;2023-01-13T01:38:54;19.73;;;10.13;;
51810;SDS011;52468;40.116;18.296;2023-01-13T01:41:24;18.63;;;12.10;;
51810;SDS011;52468;40.116;18.296;2023-01-13T01:44:04;23.87;;;12.70;;
51810;SDS011;52468;40.116;18.296;2023-01-13T01:46:38;17.10;;;11.67;;
51810;SDS011;52468;40.116;18.296;2023-01-13T01:49:13;17.33;;;10.90;;
51810;SDS011;52468;40.116;18.296;2023-01-13T01:51:56;18.63;;;10.23;;
51810;SDS011;52468;40.116;18.296;2023-01-13T01:54:27;21.60;;;11.87;;
51810;SDS011;52468;40.116;18.296;2023-01-13T01:57:04;18.97;;;11.70;;
51810;SDS011;52468;40.116;18.296;2023-01-13T01:59:35;20.40;;;11.23;;
51810;SDS011;52468;40.116;18.296;2023-01-13T02:02:05;17.63;;;10.30;;
51810;SDS011;52468;40.116;18.296;2023-01-13T02:04:35;16.03;;;10.47;;
51810;SDS011;52468;40.116;18.296;2023-01-13T02:07:07;17.02;;;10.75;;
51810;SDS011;52468;40.116;18.296;2023-01-13T02:09:35;14.23;;;10.43;;
51810;SDS011;52468;40.116;18.296;2023-01-13T02:12:03;22.13;;;12.67;;
51810;SDS011;52468;40.116;18.296;2023-01-13T02:14:50;17.40;;;10.63;;
51810;SDS011;52468;40.116;18.296;2023-01-13T02:29:22;16.37;;;10.93;;
51810;SDS011;52468;40.116;18.296;2023-01-13T02:32:19;19.80;;;10.67;;
51810;SDS011;52468;40.116;18.296;2023-01-13T02:37:38;15.77;;;10.67;;
51810;SDS011;52468;40.116;18.296;2023-01-13T02:43:08;22.37;;;11.63;;
51810;SDS011;52468;40.116;18.296;2023-01-13T02:46:08;24.67;;;11.47;;
51810;SDS011;52468;40.116;18.296;2023-01-13T02:48:44;20.07;;;11.23;;
51810;SDS011;52468;40.116;18.296;2023-01-13T02:51:16;23.73;;;12.20;;
51810;SDS011;52468;40.116;18.296;2023-01-13T02:56:39;17.90;;;10.93;;
51810;SDS011;52468;40.116;18.296;2023-01-13T03:01:40;20.87;;;10.60;;
51810;SDS011;52468;40.116;18.296;2023-01-13T03:04:09;17.50;;;10.33;;
51810;SDS011;52468;40.116;18.296;2023-01-13T03:09:51;16.87;;;8.37;;
51810;SDS011;52468;40.116;18.296;2023-01-13T03:23:50;18.47;;;8.60;;
51810;SDS011;52468;40.116;18.296;2023-01-13T03:29:05;11.70;;;7.57;;
51810;SDS011;52468;40.116;18.296;2023-01-13T03:31:43;17.03;;;8.03;;
51810;SDS011;52468;40.116;18.296;2023-01-13T03:34:21;11.03;;;8.07;;
51810;SDS011;52468;40.116;18.296;2023-01-13T03:36:57;14.60;;;8.77;;
51810;SDS011;52468;40.116;18.296;2023-01-13T03:39:34;13.87;;;9.00;;
51810;SDS011;52468;40.116;18.296;2023-01-13T03:42:07;15.45;;;8.90;;
51810;SDS011;52468;40.116;18.296;2023-01-13T03:44:46;13.10;;;9.00;;
51810;SDS011;52468;40.116;18.296;2023-01-13T03:47:29;13.87;;;7.50;;
51810;SDS011;52468;40.116;18.296;2023-01-13T03:52:39;12.50;;;7.60;;
51810;SDS011;52468;40.116;18.296;2023-01-13T03:55:17;19.50;;;9.50;;
51810;SDS011;52468;40.116;18.296;2023-01-13T03:58:11;15.93;;;7.73;;
51810;SDS011;52468;40.116;18.296;2023-01-13T04:01:25;12.93;;;7.07;;
51810;SDS011;52468;40.116;18.296;2023-01-13T04:04:00;12.30;;;8.30;;
51810;SDS011;52468;40.116;18.296;2023-01-13T04:09:11;14.93;;;8.47;;
51810;SDS011;52468;40.116;18.296;2023-01-13T04:11:48;13.23;;;7.40;;
51810;SDS011;52468;40.116;18.296;2023-01-13T04:14:22;14.53;;;8.73;;
51810;SDS011;52468;40.116;18.296;2023-01-13T04:16:54;16.17;;;9.03;;
51810;SDS011;52468;40.116;18.296;2023-01-13T04:19:23;14.90;;;9.17;;
51810;SDS011;52468;40.116;18.296;2023-01-13T04:21:51;13.60;;;7.93;;
51810;SDS011;52468;40.116;18.296;2023-01-13T04:27:25;15.90;;;9.30;;
51810;SDS011;52468;40.116;18.296;2023-01-13T04:29:53;11.93;;;7.60;;
51810;SDS011;52468;40.116;18.296;2023-01-13T04:32:21;15.13;;;7.50;;
51810;SDS011;52468;40.116;18.296;2023-01-13T04:34:49;17.00;;;8.40;;
51810;SDS011;52468;40.116;18.296;2023-01-13T04:37:17;14.47;;;7.27;;
51810;SDS011;52468;40.116;18.296;2023-01-13T04:39:45;16.33;;;8.97;;
51810;SDS011;52468;40.116;18.296;2023-01-13T04:42:12;20.17;;;9.60;;
51810;SDS011;52468;40.116;18.296;2023-01-13T04:44:41;17.80;;;7.93;;
51810;SDS011;52468;40.116;18.296;2023-01-13T04:47:09;17.10;;;8.17;;
51810;SDS011;52468;40.116;18.296;2023-01-13T04:49:36;15.83;;;8.23;;
51810;SDS011;52468;40.116;18.296;2023-01-13T04:52:04;17.67;;;8.00;;
51810;SDS011;52468;40.116;18.296;2023-01-13T04:54:33;13.63;;;7.83;;
51810;SDS011;52468;40.116;18.296;2023-01-13T04:57:01;12.37;;;7.77;;
51810;SDS011;52468;40.116;18.296;2023-01-13T04:59:29;20.97;;;10.20;;
51810;SDS011;52468;40.116;18.296;2023-01-13T05:01:58;16.07;;;8.67;;
51810;SDS011;52468;40.116;18.296;2023-01-13T05:04:26;19.00;;;8.67;;
51810;SDS011;52468;40.116;18.296;2023-01-13T05:06:54;15.33;;;8.83;;
51810;SDS011;52468;40.116;18.296;2023-01-13T05:09:22;16.73;;;8.80;;
51810;SDS011;52468;40.116;18.296;2023-01-13T05:11:50;18.23;;;9.67;;
51810;SDS011;52468;40.116;18.296;2023-01-13T05:14:36;19.10;;;11.73;;
51810;SDS011;52468;40.116;18.296;2023-01-13T05:17:22;16.10;;;8.80;;
51810;SDS011;52468;40.116;18.296;2023-01-13T05:19:51;18.57;;;9.53;;
51810;SDS011;52468;40.116;18.296;2023-01-13T05:22:19;20.03;;;10.00;;
51810;SDS011;52468;40.116;18.296;2023-01-13T05:25:07;21.03;;;10.67;;
51810;SDS011;52468;40.116;18.296;2023-01-13T05:27:48;17.23;;;9.53;;
51810;SDS011;52468;40.116;18.296;2023-01-13T05:30:19;19.90;;;10.50;;
51810;SDS011;52468;40.116;18.296;2023-01-13T05:32:48;22.47;;;10.03;;
51810;SDS011;52468;40.116;18.296;2023-01-13T05:35:16;18.13;;;9.90;;
51810;SDS011;52468;40.116;18.296;2023-01-13T05:37:45;20.43;;;9.27;;
51810;SDS011;52468;40.116;18.296;2023-01-13T05:40:14;17.13;;;10.47;;
51810;SDS011;52468;40.116;18.296;2023-01-13T05:43:12;26.67;;;11.73;;
51810;SDS011;52468;40.116;18.296;2023-01-13T05:48:32;18.37;;;9.43;;
51810;SDS011;52468;40.116;18.296;2023-01-13T05:51:05;15.13;;;9.83;;
51810;SDS011;52468;40.116;18.296;2023-01-13T05:53:34;14.00;;;8.87;;
51810;SDS011;52468;40.116;18.296;2023-01-13T05:56:03;21.67;;;10.07;;
51810;SDS011;52468;40.116;18.296;2023-01-13T05:58:32;19.90;;;10.87;;
51810;SDS011;52468;40.116;18.296;2023-01-13T06:01:01;24.33;;;13.23;;
51810;SDS011;52468;40.116;18.296;2023-01-13T06:03:31;22.67;;;11.80;;
51810;SDS011;52468;40.116;18.296;2023-01-13T06:05:59;22.00;;;9.80;;
51810;SDS011;52468;40.116;18.296;2023-01-13T06:08:29;19.03;;;10.97;;
51810;SDS011;52468;40.116;18.296;2023-01-13T06:10:57;22.23;;;10.40;;
51810;SDS011;52468;40.116;18.296;2023-01-13T06:13:25;22.97;;;10.33;;
51810;SDS011;52468;40.116;18.296;2023-01-13T06:15:56;21.73;;;12.93;;
51810;SDS011;52468;40.116;18.296;2023-01-13T06:18:25;26.97;;;12.37;;
51810;SDS011;52468;40.116;18.296;2023-01-13T06:20:53;22.43;;;11.97;;
51810;SDS011;52468;40.116;18.296;2023-01-13T06:23:22;21.40;;;11.00;;
51810;SDS011;52468;40.116;18.296;2023-01-13T06:26:11;23.53;;;11.53;;
51810;SDS011;52468;40.116;18.296;2023-01-13T06:28:45;18.73;;;11.37;;
51810;SDS011;52468;40.116;18.296;2023-01-13T06:31:14;28.60;;;15.07;;
51810;SDS011;52468;40.116;18.296;2023-01-13T06:33:43;20.07;;;11.73;;
51810;SDS011;52468;40.116;18.296;2023-01-13T06:36:16;25.77;;;11.25;;
51810;SDS011;52468;40.116;18.296;2023-01-13T06:38:51;26.57;;;13.30;;
51810;SDS011;52468;40.116;18.296;2023-01-13T06:41:22;20.93;;;12.90;;
51810;SDS011;52468;40.116;18.296;2023-01-13T06:44:10;24.60;;;12.50;;
51810;SDS011;52468;40.116;18.296;2023-01-13T06:46:38;27.43;;;14.80;;
51810;SDS011;52468;40.116;18.296;2023-01-13T06:49:06;36.00;;;17.57;;
51810;SDS011;52468;40.116;18.296;2023-01-13T06:51:35;38.00;;;22.03;;
51810;SDS011;52468;40.116;18.296;2023-01-13T06:54:03;54.37;;;26.57;;
51810;SDS011;52468;40.116;18.296;2023-01-13T06:56:31;39.87;;;21.97;;
51810;SDS011;52468;40.116;18.296;2023-01-13T06:58:58;44.73;;;20.60;;
51810;SDS011;52468;40.116;18.296;2023-01-13T07:01:26;28.97;;;15.97;;
51810;SDS011;52468;40.116;18.296;2023-01-13T07:03:55;29.20;;;14.73;;
51810;SDS011;52468;40.116;18.296;2023-01-13T07:06:24;29.73;;;14.37;;
51810;SDS011;52468;40.116;18.296;2023-01-13T07:08:52;43.07;;;18.57;;
51810;SDS011;52468;40.116;18.296;2023-01-13T07:11:20;40.37;;;17.87;;
51810;SDS011;52468;40.116;18.296;2023-01-13T07:13:48;30.47;;;15.57;;
51810;SDS011;52468;40.116;18.296;2023-01-13T07:16:34;29.50;;;15.57;;
51810;SDS011;52468;40.116;18.296;2023-01-13T07:19:02;37.37;;;15.97;;
51810;SDS011;52468;40.116;18.296;2023-01-13T07:21:30;37.47;;;17.20;;
51810;SDS011;52468;40.116;18.296;2023-01-13T07:23:58;34.37;;;16.80;;
51810;SDS011;52468;40.116;18.296;2023-01-13T07:26:26;31.40;;;17.37;;
51810;SDS011;52468;40.116;18.296;2023-01-13T07:28:53;26.37;;;15.23;;
51810;SDS011;52468;40.116;18.296;2023-01-13T07:31:21;28.87;;;15.97;;
51810;SDS011;52468;40.116;18.296;2023-01-13T07:33:49;35.67;;;16.13;;
51810;SDS011;52468;40.116;18.296;2023-01-13T07:36:17;29.67;;;15.87;;
51810;SDS011;52468;40.116;18.296;2023-01-13T07:38:45;36.37;;;16.57;;
51810;SDS011;52468;40.116;18.296;2023-01-13T07:41:13;34.27;;;16.70;;
51810;SDS011;52468;40.116;18.296;2023-01-13T07:44:02;30.10;;;15.10;;
51810;SDS011;52468;40.116;18.296;2023-01-13T07:46:32;38.10;;;16.40;;
51810;SDS011;52468;40.116;18.296;2023-01-13T07:49:00;39.17;;;16.03;;
51810;SDS011;52468;40.116;18.296;2023-01-13T07:51:28;29.40;;;16.30;;
51810;SDS011;52468;40.116;18.296;2023-01-13T07:53:56;27.97;;;15.50;;
51810;SDS011;52468;40.116;18.296;2023-01-13T07:56:25;28.43;;;14.73;;
51810;SDS011;52468;40.116;18.296;2023-01-13T07:58:52;26.93;;;13.60;;
51810;SDS011;52468;40.116;18.296;2023-01-13T08:01:20;28.30;;;14.03;;
51810;SDS011;52468;40.116;18.296;2023-01-13T08:03:48;28.97;;;13.30;;
51810;SDS011;52468;40.116;18.296;2023-01-13T08:06:16;23.23;;;15.17;;
51810;SDS011;52468;40.116;18.296;2023-01-13T08:08:44;27.13;;;13.23;;
51810;SDS011;52468;40.116;18.296;2023-01-13T08:11:12;21.20;;;13.33;;
51810;SDS011;52468;40.116;18.296;2023-01-13T08:13:40;20.57;;;11.10;;
51810;SDS011;52468;40.116;18.296;2023-01-13T08:16:09;19.50;;;11.47;;
51810;SDS011;52468;40.116;18.296;2023-01-13T08:18:45;19.03;;;8.80;;
51810;SDS011;52468;40.116;18.296;2023-01-13T08:21:13;12.73;;;7.30;;
51810;SDS011;52468;40.116;18.296;2023-01-13T08:23:42;12.83;;;8.17;;
51810;SDS011;52468;40.116;18.296;2023-01-13T08:26:12;13.07;;;7.23;;
51810;SDS011;52468;40.116;18.296;2023-01-13T08:28:42;11.10;;;7.27;;
51810;SDS011;52468;40.116;18.296;2023-01-13T08:31:12;11.40;;;6.10;;
51810;SDS011;52468;40.116;18.296;2023-01-13T08:33:43;13.00;;;6.50;;
51810;SDS011;52468;40.116;18.296;2023-01-13T08:36:11;7.97;;;4.33;;
51810;SDS011;52468;40.116;18.296;2023-01-13T08:38:40;7.43;;;3.83;;
51810;SDS011;52468;40.116;18.296;2023-01-13T08:41:11;6.77;;;4.20;;
51810;SDS011;52468;40.116;18.296;2023-01-13T08:43:41;6.67;;;4.53;;
51810;SDS011;52468;40.116;18.296;2023-01-13T08:46:09;5.20;;;3.40;;
51810;SDS011;52468;40.116;18.296;2023-01-13T08:48:37;7.40;;;2.97;;
51810;SDS011;52468;40.116;18.296;2023-01-13T08:51:06;8.23;;;4.27;;
51810;SDS011;52468;40.116;18.296;2023-01-13T08:53:35;6.33;;;4.13;;
51810;SDS011;52468;40.116;18.296;2023-01-13T08:56:07;8.00;;;4.43;;
51810;SDS011;52468;40.116;18.296;2023-01-13T08:58:37;7.93;;;4.20;;
51810;SDS011;52468;40.116;18.296;2023-01-13T09:01:07;6.67;;;3.87;;
51810;SDS011;52468;40.116;18.296;2023-01-13T09:03:37;5.37;;;4.33;;
51810;SDS011;52468;40.116;18.296;2023-01-13T09:06:05;7.73;;;5.27;;
51810;SDS011;52468;40.116;18.296;2023-01-13T09:08:33;10.43;;;5.17;;
51810;SDS011;52468;40.116;18.296;2023-01-13T09:11:01;7.97;;;5.10;;
51810;SDS011;52468;40.116;18.296;2023-01-13T09:13:49;11.30;;;6.57;;
51810;SDS011;52468;40.116;18.296;2023-01-13T09:16:17;9.57;;;6.43;;
51810;SDS011;52468;40.116;18.296;2023-01-13T09:18:45;9.53;;;7.00;;
51810;SDS011;52468;40.116;18.296;2023-01-13T09:21:13;9.93;;;5.63;;
51810;SDS011;52468;40.116;18.296;2023-01-13T09:23:42;10.23;;;5.37;;
51810;SDS011;52468;40.116;18.296;2023-01-13T09:26:10;7.47;;;4.87;;
51810;SDS011;52468;40.116;18.296;2023-01-13T09:28:42;11.53;;;6.40;;
51810;SDS011;52468;40.116;18.296;2023-01-13T09:31:10;8.80;;;6.47;;
51810;SDS011;52468;40.116;18.296;2023-01-13T09:33:38;6.47;;;4.83;;
51810;SDS011;52468;40.116;18.296;2023-01-13T09:36:24;5.63;;;3.93;;
51810;SDS011;52468;40.116;18.296;2023-01-13T09:38:52;5.70;;;3.60;;
51810;SDS011;52468;40.116;18.296;2023-01-13T09:41:20;5.60;;;4.03;;
51810;SDS011;52468;40.116;18.296;2023-01-13T09:44:11;4.93;;;4.17;;
51810;SDS011;52468;40.116;18.296;2023-01-13T09:46:53;6.95;;;4.28;;
51810;SDS011;52468;40.116;18.296;2023-01-13T09:49:36;4.13;;;3.67;;
51810;SDS011;52468;40.116;18.296;2023-01-13T09:54:42;6.20;;;3.83;;
51810;SDS011;52468;40.116;18.296;2023-01-13T09:57:15;6.30;;;4.83;;
51810;SDS011;52468;40.116;18.296;2023-01-13T09:59:45;6.00;;;3.30;;
51810;SDS011;52468;40.116;18.296;2023-01-13T10:05:33;5.67;;;3.37;;
51810;SDS011;52468;40.116;18.296;2023-01-13T10:08:27;5.68;;;3.85;;
51810;SDS011;52468;40.116;18.296;2023-01-13T10:11:00;5.75;;;4.53;;
51810;SDS011;52468;40.116;18.296;2023-01-13T10:13:58;6.60;;;3.33;;
51810;SDS011;52468;40.116;18.296;2023-01-13T10:25:23;10.93;;;4.50;;
51810;SDS011;52468;40.116;18.296;2023-01-13T10:28:10;8.43;;;4.93;;
51810;SDS011;52468;40.116;18.296;2023-01-13T10:30:42;6.20;;;3.27;;
51810;SDS011;52468;40.116;18.296;2023-01-13T10:43:23;5.17;;;3.93;;
51810;SDS011;52468;40.116;18.296;2023-01-13T10:48:34;3.30;;;2.87;;
51810;SDS011;52468;40.116;18.296;2023-01-13T10:51:48;5.07;;;3.63;;
51810;SDS011;52468;40.116;18.296;2023-01-13T10:54:12;4.07;;;3.38;;
51810;SDS011;52468;40.116;18.296;2023-01-13T10:56:46;5.30;;;3.33;;
51810;SDS011;52468;40.116;18.296;2023-01-13T10:59:16;4.77;;;2.90;;
51810;SDS011;52468;40.116;18.296;2023-01-13T11:04:31;8.00;;;4.47;;
51810;SDS011;52468;40.116;18.296;2023-01-13T11:07:05;12.83;;;3.43;;
51810;SDS011;52468;40.116;18.296;2023-01-13T11:10:09;7.03;;;3.30;;
51810;SDS011;52468;40.116;18.296;2023-01-13T11:12:49;3.90;;;3.07;;
51810;SDS011;52468;40.116;18.296;2023-01-13T11:21:29;6.87;;;4.77;;
51810;SDS011;52468;40.116;18.296;2023-01-13T11:26:48;4.87;;;3.00;;
51810;SDS011;52468;40.116;18.296;2023-01-13T11:29:25;3.47;;;2.60;;
51810;SDS011;52468;40.116;18.296;2023-01-13T11:32:21;5.10;;;2.80;;
51810;SDS011;52468;40.116;18.296;2023-01-13T11:35:36;8.87;;;4.40;;
51810;SDS011;52468;40.116;18.296;2023-01-13T11:37:42;5.53;;;3.20;;
51810;SDS011;52468;40.116;18.296;2023-01-13T11:40:40;3.33;;;3.00;;
51810;SDS011;52468;40.116;18.296;2023-01-13T11:45:56;10.60;;;7.00;;
51810;SDS011;52468;40.116;18.296;2023-01-13T11:48:26;4.43;;;3.37;;
51810;SDS011;52468;40.116;18.296;2023-01-13T12:13:50;6.30;;;3.63;;
51810;SDS011;52468;40.116;18.296;2023-01-13T12:16:49;5.77;;;3.10;;
51810;SDS011;52468;40.116;18.296;2023-01-13T12:22:04;12.23;;;8.63;;
51810;SDS011;52468;40.116;18.296;2023-01-13T12:24:43;8.93;;;5.90;;
51810;SDS011;52468;40.116;18.296;2023-01-13T12:30:32;6.93;;;3.43;;
51810;SDS011;52468;40.116;18.296;2023-01-13T12:33:11;6.30;;;4.80;;
51810;SDS011;52468;40.116;18.296;2023-01-13T12:35:48;5.73;;;4.40;;
51810;SDS011;52468;40.116;18.296;2023-01-13T12:38:32;8.20;;;4.70;;
51810;SDS011;52468;40.116;18.296;2023-01-13T12:43:50;5.03;;;3.70;;
51810;SDS011;52468;40.116;18.296;2023-01-13T12:46:46;7.27;;;5.77;;
51810;SDS011;52468;40.116;18.296;2023-01-13T12:49:26;3.30;;;3.00;;
51810;SDS011;52468;40.116;18.296;2023-01-13T13:00:11;7.67;;;5.07;;
51810;SDS011;52468;40.116;18.296;2023-01-13T13:02:43;7.23;;;5.17;;
51810;SDS011;52468;40.116;18.296;2023-01-13T13:11:00;3.53;;;2.63;;
51810;SDS011;52468;40.116;18.296;2023-01-13T13:14:00;5.10;;;3.63;;
51810;SDS011;52468;40.116;18.296;2023-01-13T13:24:40;3.53;;;2.23;;
51810;SDS011;52468;40.116;18.296;2023-01-13T13:27:39;4.27;;;3.00;;
51810;SDS011;52468;40.116;18.296;2023-01-13T13:35:47;6.60;;;3.43;;
51810;SDS011;52468;40.116;18.296;2023-01-13T13:42:10;6.40;;;3.17;;
51810;SDS011;52468;40.116;18.296;2023-01-13T13:44:57;7.73;;;4.57;;
51810;SDS011;52468;40.116;18.296;2023-01-13T13:47:45;8.43;;;5.63;;
51810;SDS011;52468;40.116;18.296;2023-01-13T13:50:15;6.13;;;4.60;;
51810;SDS011;52468;40.116;18.296;2023-01-13T13:52:48;5.95;;;4.72;;
51810;SDS011;52468;40.116;18.296;2023-01-13T13:55:25;5.17;;;3.77;;
51810;SDS011;52468;40.116;18.296;2023-01-13T13:57:55;8.83;;;4.10;;
51810;SDS011;52468;40.116;18.296;2023-01-13T14:00:29;7.17;;;4.87;;
51810;SDS011;52468;40.116;18.296;2023-01-13T14:03:17;5.53;;;4.10;;
51810;SDS011;52468;40.116;18.296;2023-01-13T14:05:58;9.27;;;4.03;;
51810;SDS011;52468;40.116;18.296;2023-01-13T14:08:29;13.07;;;8.20;;
51810;SDS011;52468;40.116;18.296;2023-01-13T14:10:59;27.80;;;18.87;;
51810;SDS011;52468;40.116;18.296;2023-01-13T14:13:28;14.43;;;9.43;;
51810;SDS011;52468;40.116;18.296;2023-01-13T14:16:04;17.83;;;12.60;;
51810;SDS011;52468;40.116;18.296;2023-01-13T14:18:46;41.37;;;23.63;;
51810;SDS011;52468;40.116;18.296;2023-01-13T14:23:58;14.23;;;9.60;;
51810;SDS011;52468;40.116;18.296;2023-01-13T14:26:31;39.13;;;22.23;;
51810;SDS011;52468;40.116;18.296;2023-01-13T14:29:00;19.13;;;10.33;;
51810;SDS011;52468;40.116;18.296;2023-01-13T14:31:28;13.10;;;9.37;;
51810;SDS011;52468;40.116;18.296;2023-01-13T14:33:58;14.50;;;10.23;;
51810;SDS011;52468;40.116;18.296;2023-01-13T14:41:33;25.83;;;17.90;;
51810;SDS011;52468;40.116;18.296;2023-01-13T14:44:47;11.38;;;8.68;;
51810;SDS011;52468;40.116;18.296;2023-01-13T14:50:00;62.97;;;41.30;;
51810;SDS011;52468;40.116;18.296;2023-01-13T14:52:46;15.20;;;10.60;;
51810;SDS011;52468;40.116;18.296;2023-01-13T15:00:51;14.13;;;6.90;;
51810;SDS011;52468;40.116;18.296;2023-01-13T15:04:14;11.55;;;7.85;;
51810;SDS011;52468;40.116;18.296;2023-01-13T15:06:46;8.30;;;6.93;;
51810;SDS011;52468;40.116;18.296;2023-01-13T15:09:22;9.50;;;8.13;;
51810;SDS011;52468;40.116;18.296;2023-01-13T15:11:52;11.35;;;9.93;;
51810;SDS011;52468;40.116;18.296;2023-01-13T15:14:22;15.07;;;9.40;;
51810;SDS011;52468;40.116;18.296;2023-01-13T15:16:56;22.03;;;15.70;;
51810;SDS011;52468;40.116;18.296;2023-01-13T15:19:24;23.83;;;16.57;;
51810;SDS011;52468;40.116;18.296;2023-01-13T15:21:52;20.40;;;12.80;;
51810;SDS011;52468;40.116;18.296;2023-01-13T15:24:20;21.10;;;14.10;;
51810;SDS011;52468;40.116;18.296;2023-01-13T15:26:48;22.90;;;14.63;;
51810;SDS011;52468;40.116;18.296;2023-01-13T15:29:16;18.20;;;12.70;;
51810;SDS011;52468;40.116;18.296;2023-01-13T15:31:45;30.30;;;19.67;;
51810;SDS011;52468;40.116;18.296;2023-01-13T15:34:13;17.60;;;11.20;;
51810;SDS011;52468;40.116;18.296;2023-01-13T15:36:41;14.73;;;9.97;;
51810;SDS011;52468;40.116;18.296;2023-01-13T15:39:09;13.30;;;9.20;;
51810;SDS011;52468;40.116;18.296;2023-01-13T15:41:39;12.93;;;9.60;;
51810;SDS011;52468;40.116;18.296;2023-01-13T15:44:26;15.73;;;9.30;;
51810;SDS011;52468;40.116;18.296;2023-01-13T15:47:13;11.73;;;8.30;;
51810;SDS011;52468;40.116;18.296;2023-01-13T15:49:42;10.90;;;7.10;;
51810;SDS011;52468;40.116;18.296;2023-01-13T15:52:21;10.80;;;6.73;;
51810;SDS011;52468;40.116;18.296;2023-01-13T15:54:51;11.63;;;8.00;;
51810;SDS011;52468;40.116;18.296;2023-01-13T15:59:56;12.43;;;8.47;;
51810;SDS011;52468;40.116;18.296;2023-01-13T16:02:26;14.33;;;9.17;;
51810;SDS011;52468;40.116;18.296;2023-01-13T16:04:56;16.23;;;9.43;;
51810;SDS011;52468;40.116;18.296;2023-01-13T16:07:24;17.47;;;11.07;;
51810;SDS011;52468;40.116;18.296;2023-01-13T16:09:52;26.43;;;13.73;;
51810;SDS011;52468;40.116;18.296;2023-01-13T16:12:20;38.50;;;22.33;;
51810;SDS011;52468;40.116;18.296;2023-01-13T16:14:51;34.13;;;22.03;;
51810;SDS011;52468;40.116;18.296;2023-01-13T16:17:20;29.40;;;18.93;;
51810;SDS011;52468;40.116;18.296;2023-01-13T16:19:52;24.40;;;17.83;;
51810;SDS011;52468;40.116;18.296;2023-01-13T16:22:21;25.33;;;17.93;;
51810;SDS011;52468;40.116;18.296;2023-01-13T16:24:49;21.40;;;13.57;;
51810;SDS011;52468;40.116;18.296;2023-01-13T16:27:18;24.43;;;12.73;;
51810;SDS011;52468;40.116;18.296;2023-01-13T16:29:48;17.80;;;12.60;;
51810;SDS011;52468;40.116;18.296;2023-01-13T16:32:17;17.00;;;11.27;;
51810;SDS011;52468;40.116;18.296;2023-01-13T16:34:48;21.00;;;11.43;;
51810;SDS011;52468;40.116;18.296;2023-01-13T16:37:26;17.20;;;11.73;;
51810;SDS011;52468;40.116;18.296;2023-01-13T16:39:54;19.87;;;11.40;;
51810;SDS011;52468;40.116;18.296;2023-01-13T16:42:21;18.00;;;11.67;;
51810;SDS011;52468;40.116;18.296;2023-01-13T16:44:49;21.27;;;13.53;;
51810;SDS011;52468;40.116;18.296;2023-01-13T16:47:19;29.97;;;16.43;;
51810;SDS011;52468;40.116;18.296;2023-01-13T16:49:49;23.17;;;16.63;;
51810;SDS011;52468;40.116;18.296;2023-01-13T16:52:16;23.53;;;14.20;;
51810;SDS011;52468;40.116;18.296;2023-01-13T16:54:44;23.53;;;15.33;;
51810;SDS011;52468;40.116;18.296;2023-01-13T16:57:12;27.20;;;15.93;;
51810;SDS011;52468;40.116;18.296;2023-01-13T16:59:41;30.37;;;17.60;;
51810;SDS011;52468;40.116;18.296;2023-01-13T17:02:13;25.63;;;14.97;;
51810;SDS011;52468;40.116;18.296;2023-01-13T17:04:41;25.90;;;15.90;;
51810;SDS011;52468;40.116;18.296;2023-01-13T17:07:10;28.27;;;19.33;;
51810;SDS011;52468;40.116;18.296;2023-01-13T17:09:42;35.55;;;21.33;;
51810;SDS011;52468;40.116;18.296;2023-01-13T17:12:10;29.30;;;20.43;;
51810;SDS011;52468;40.116;18.296;2023-01-13T17:14:38;31.03;;;19.70;;
51810;SDS011;52468;40.116;18.296;2023-01-13T17:17:07;40.87;;;26.47;;
51810;SDS011;52468;40.116;18.296;2023-01-13T17:19:49;46.33;;;25.98;;
51810;SDS011;52468;40.116;18.296;2023-01-13T17:22:17;42.17;;;26.10;;
51810;SDS011;52468;40.116;18.296;2023-01-13T17:24:46;44.53;;;27.67;;
51810;SDS011;52468;40.116;18.296;2023-01-13T17:27:14;39.63;;;26.00;;
51810;SDS011;52468;40.116;18.296;2023-01-13T17:29:44;32.30;;;24.47;;
51810;SDS011;52468;40.116;18.296;2023-01-13T17:32:16;41.67;;;25.40;;
51810;SDS011;52468;40.116;18.296;2023-01-13T17:34:45;42.50;;;28.25;;
51810;SDS011;52468;40.116;18.296;2023-01-13T17:37:13;49.50;;;32.23;;
51810;SDS011;52468;40.116;18.296;2023-01-13T17:39:42;49.47;;;35.10;;
51810;SDS011;52468;40.116;18.296;2023-01-13T17:42:12;54.33;;;35.20;;
51810;SDS011;52468;40.116;18.296;2023-01-13T17:44:41;61.73;;;38.97;;
51810;SDS011;52468;40.116;18.296;2023-01-13T17:47:09;56.43;;;40.63;;